sensor_id;sensor_type;location;lat;lon;timestamp;temperature;humidity
360;DHT22;168;48.872;9.226;2024-03-07T00:00:19;7.80;96.10
360;DHT22;168;48.872;9.226;2024-03-07T00:02:49;7.80;96.10
360;DHT22;168;48.872;9.226;2024-03-07T00:05:16;7.70;97.00
360;DHT22;168;48.872;9.226;2024-03-07T00:07:44;7.70;97.30
360;DHT22;168;48.872;9.226;2024-03-07T00:10:12;7.60;97.30
360;DHT22;168;48.872;9.226;2024-03-07T00:12:41;7.70;97.60
360;DHT22;168;48.872;9.226;2024-03-07T00:15:10;7.70;97.60
360;DHT22;168;48.872;9.226;2024-03-07T00:17:39;7.70;97.70
360;DHT22;168;48.872;9.226;2024-03-07T00:20:07;7.80;97.80
360;DHT22;168;48.872;9.226;2024-03-07T00:22:40;7.80;98.30
360;DHT22;168;48.872;9.226;2024-03-07T00:25:08;7.60;97.70
360;DHT22;168;48.872;9.226;2024-03-07T00:27:35;7.60;97.70
360;DHT22;168;48.872;9.226;2024-03-07T00:30:05;7.50;97.70
360;DHT22;168;48.872;9.226;2024-03-07T00:32:35;7.60;98.20
360;DHT22;168;48.872;9.226;2024-03-07T00:35:07;7.50;98.30
360;DHT22;168;48.872;9.226;2024-03-07T00:37:36;7.60;98.50
360;DHT22;168;48.872;9.226;2024-03-07T00:40:04;7.50;98.60
360;DHT22;168;48.872;9.226;2024-03-07T00:42:32;7.30;98.40
360;DHT22;168;48.872;9.226;2024-03-07T00:44:59;7.20;98.40
360;DHT22;168;48.872;9.226;2024-03-07T00:47:27;7.20;98.50
360;DHT22;168;48.872;9.226;2024-03-07T00:49:54;7.10;98.50
360;DHT22;168;48.872;9.226;2024-03-07T00:52:23;7.10;98.60
360;DHT22;168;48.872;9.226;2024-03-07T00:54:51;7.10;98.60
360;DHT22;168;48.872;9.226;2024-03-07T00:57:18;7.10;98.50
360;DHT22;168;48.872;9.226;2024-03-07T00:59:46;7.10;98.50
360;DHT22;168;48.872;9.226;2024-03-07T01:02:14;7.10;98.50
360;DHT22;168;48.872;9.226;2024-03-07T01:04:43;6.90;98.40
360;DHT22;168;48.872;9.226;2024-03-07T01:07:10;7.00;98.50
360;DHT22;168;48.872;9.226;2024-03-07T01:09:39;6.90;98.40
360;DHT22;168;48.872;9.226;2024-03-07T01:12:06;6.80;98.30
360;DHT22;168;48.872;9.226;2024-03-07T01:14:36;6.70;98.50
360;DHT22;168;48.872;9.226;2024-03-07T01:17:03;6.60;98.70
360;DHT22;168;48.872;9.226;2024-03-07T01:19:44;6.50;98.80
360;DHT22;168;48.872;9.226;2024-03-07T01:22:11;6.50;98.70
360;DHT22;168;48.872;9.226;2024-03-07T01:24:40;6.50;98.80
360;DHT22;168;48.872;9.226;2024-03-07T01:27:07;6.50;98.50
360;DHT22;168;48.872;9.226;2024-03-07T01:29:35;6.40;98.60
360;DHT22;168;48.872;9.226;2024-03-07T01:32:02;6.30;98.40
360;DHT22;168;48.872;9.226;2024-03-07T01:34:30;6.20;98.60
360;DHT22;168;48.872;9.226;2024-03-07T01:36:57;6.10;98.80
360;DHT22;168;48.872;9.226;2024-03-07T01:39:24;6.00;98.80
360;DHT22;168;48.872;9.226;2024-03-07T01:41:53;6.00;98.90
360;DHT22;168;48.872;9.226;2024-03-07T01:44:21;5.90;98.80
360;DHT22;168;48.872;9.226;2024-03-07T01:46:48;5.90;98.80
360;DHT22;168;48.872;9.226;2024-03-07T01:49:16;5.80;98.80
360;DHT22;168;48.872;9.226;2024-03-07T01:51:44;5.80;98.80
360;DHT22;168;48.872;9.226;2024-03-07T01:54:12;5.90;98.80
360;DHT22;168;48.872;9.226;2024-03-07T01:56:39;5.90;98.80
360;DHT22;168;48.872;9.226;2024-03-07T01:59:08;5.80;98.70
360;DHT22;168;48.872;9.226;2024-03-07T02:01:37;5.80;98.90
360;DHT22;168;48.872;9.226;2024-03-07T02:04:04;5.90;98.90
360;DHT22;168;48.872;9.226;2024-03-07T02:06:32;5.80;98.70
360;DHT22;168;48.872;9.226;2024-03-07T02:09:00;5.70;98.70
360;DHT22;168;48.872;9.226;2024-03-07T02:11:28;5.70;98.80
360;DHT22;168;48.872;9.226;2024-03-07T02:13:56;5.60;98.90
360;DHT22;168;48.872;9.226;2024-03-07T02:16:24;5.60;98.80
360;DHT22;168;48.872;9.226;2024-03-07T02:18:52;5.60;98.80
360;DHT22;168;48.872;9.226;2024-03-07T02:21:22;5.50;99.00
360;DHT22;168;48.872;9.226;2024-03-07T02:23:50;5.40;98.90
360;DHT22;168;48.872;9.226;2024-03-07T02:26:17;5.40;98.80
360;DHT22;168;48.872;9.226;2024-03-07T02:28:44;5.40;99.10
360;DHT22;168;48.872;9.226;2024-03-07T02:31:11;5.40;99.00
360;DHT22;168;48.872;9.226;2024-03-07T02:33:39;5.50;98.90
360;DHT22;168;48.872;9.226;2024-03-07T02:36:07;5.40;98.70
360;DHT22;168;48.872;9.226;2024-03-07T02:38:36;5.20;98.70
360;DHT22;168;48.872;9.226;2024-03-07T02:41:03;5.20;98.90
360;DHT22;168;48.872;9.226;2024-03-07T02:43:31;5.10;98.90
360;DHT22;168;48.872;9.226;2024-03-07T02:45:58;5.00;98.90
360;DHT22;168;48.872;9.226;2024-03-07T02:48:25;5.10;99.00
360;DHT22;168;48.872;9.226;2024-03-07T02:50:53;5.20;98.90
360;DHT22;168;48.872;9.226;2024-03-07T02:53:21;5.20;98.90
360;DHT22;168;48.872;9.226;2024-03-07T02:55:49;5.30;98.70
360;DHT22;168;48.872;9.226;2024-03-07T02:58:17;5.20;98.60
360;DHT22;168;48.872;9.226;2024-03-07T03:00:44;5.10;98.80
360;DHT22;168;48.872;9.226;2024-03-07T03:03:11;5.10;98.90
360;DHT22;168;48.872;9.226;2024-03-07T03:05:39;5.00;99.00
360;DHT22;168;48.872;9.226;2024-03-07T03:08:06;5.00;99.10
360;DHT22;168;48.872;9.226;2024-03-07T03:10:33;5.00;98.90
360;DHT22;168;48.872;9.226;2024-03-07T03:13:03;5.00;99.10
360;DHT22;168;48.872;9.226;2024-03-07T03:15:31;4.90;99.00
360;DHT22;168;48.872;9.226;2024-03-07T03:17:58;4.80;98.90
360;DHT22;168;48.872;9.226;2024-03-07T03:20:26;4.80;98.90
360;DHT22;168;48.872;9.226;2024-03-07T03:22:59;4.70;99.10
360;DHT22;168;48.872;9.226;2024-03-07T03:25:28;4.80;99.00
360;DHT22;168;48.872;9.226;2024-03-07T03:28:00;4.80;99.00
360;DHT22;168;48.872;9.226;2024-03-07T03:30:31;4.70;98.80
360;DHT22;168;48.872;9.226;2024-03-07T03:32:58;4.60;98.70
360;DHT22;168;48.872;9.226;2024-03-07T03:35:26;4.50;98.80
360;DHT22;168;48.872;9.226;2024-03-07T03:37:53;4.50;98.90
360;DHT22;168;48.872;9.226;2024-03-07T03:40:21;4.60;99.10
360;DHT22;168;48.872;9.226;2024-03-07T03:42:48;4.60;98.80
360;DHT22;168;48.872;9.226;2024-03-07T03:45:16;4.60;99.00
360;DHT22;168;48.872;9.226;2024-03-07T03:47:45;4.60;99.10
360;DHT22;168;48.872;9.226;2024-03-07T03:50:12;4.50;98.90
360;DHT22;168;48.872;9.226;2024-03-07T03:52:40;4.40;99.00
360;DHT22;168;48.872;9.226;2024-03-07T03:55:08;4.50;99.00
360;DHT22;168;48.872;9.226;2024-03-07T03:57:39;4.40;99.10
360;DHT22;168;48.872;9.226;2024-03-07T04:00:08;4.50;99.00
360;DHT22;168;48.872;9.226;2024-03-07T04:02:39;4.60;99.30
360;DHT22;168;48.872;9.226;2024-03-07T04:05:08;4.50;99.00
360;DHT22;168;48.872;9.226;2024-03-07T04:07:36;4.30;99.00
360;DHT22;168;48.872;9.226;2024-03-07T04:10:05;4.30;99.00
360;DHT22;168;48.872;9.226;2024-03-07T04:12:34;4.30;99.10
360;DHT22;168;48.872;9.226;2024-03-07T04:15:01;4.40;99.10
360;DHT22;168;48.872;9.226;2024-03-07T04:17:30;4.30;99.00
360;DHT22;168;48.872;9.226;2024-03-07T04:19:58;4.30;99.10
360;DHT22;168;48.872;9.226;2024-03-07T04:22:27;4.20;99.10
360;DHT22;168;48.872;9.226;2024-03-07T04:24:54;4.20;98.90
360;DHT22;168;48.872;9.226;2024-03-07T04:27:22;4.10;99.00
360;DHT22;168;48.872;9.226;2024-03-07T04:29:49;4.20;99.10
360;DHT22;168;48.872;9.226;2024-03-07T04:32:16;4.10;99.00
360;DHT22;168;48.872;9.226;2024-03-07T04:34:44;4.00;99.10
360;DHT22;168;48.872;9.226;2024-03-07T04:37:11;4.00;99.00
360;DHT22;168;48.872;9.226;2024-03-07T04:39:40;3.90;99.10
360;DHT22;168;48.872;9.226;2024-03-07T04:42:08;3.90;98.80
360;DHT22;168;48.872;9.226;2024-03-07T04:44:36;4.00;99.20
360;DHT22;168;48.872;9.226;2024-03-07T04:47:05;4.00;99.20
360;DHT22;168;48.872;9.226;2024-03-07T04:49:34;4.00;99.20
360;DHT22;168;48.872;9.226;2024-03-07T04:52:02;4.00;99.20
360;DHT22;168;48.872;9.226;2024-03-07T04:54:31;3.90;99.20
360;DHT22;168;48.872;9.226;2024-03-07T04:57:01;3.80;99.10
360;DHT22;168;48.872;9.226;2024-03-07T04:59:29;3.80;99.10
360;DHT22;168;48.872;9.226;2024-03-07T05:01:57;3.80;99.20
360;DHT22;168;48.872;9.226;2024-03-07T05:04:24;3.80;99.10
360;DHT22;168;48.872;9.226;2024-03-07T05:06:55;3.70;99.20
360;DHT22;168;48.872;9.226;2024-03-07T05:09:23;3.70;99.10
360;DHT22;168;48.872;9.226;2024-03-07T05:11:54;3.80;99.30
360;DHT22;168;48.872;9.226;2024-03-07T05:14:23;3.70;99.10
360;DHT22;168;48.872;9.226;2024-03-07T05:16:51;3.70;99.20
360;DHT22;168;48.872;9.226;2024-03-07T05:19:31;3.60;99.20
360;DHT22;168;48.872;9.226;2024-03-07T05:21:59;3.70;99.30
360;DHT22;168;48.872;9.226;2024-03-07T05:24:26;3.70;99.20
360;DHT22;168;48.872;9.226;2024-03-07T05:26:53;3.80;99.30
360;DHT22;168;48.872;9.226;2024-03-07T05:29:22;3.70;99.20
360;DHT22;168;48.872;9.226;2024-03-07T05:31:49;3.70;99.20
360;DHT22;168;48.872;9.226;2024-03-07T05:34:17;3.70;99.20
360;DHT22;168;48.872;9.226;2024-03-07T05:36:46;3.60;99.30
360;DHT22;168;48.872;9.226;2024-03-07T05:39:15;3.60;99.30
360;DHT22;168;48.872;9.226;2024-03-07T05:41:43;3.60;99.30
360;DHT22;168;48.872;9.226;2024-03-07T05:44:12;3.50;99.30
360;DHT22;168;48.872;9.226;2024-03-07T05:46:41;3.50;99.40
360;DHT22;168;48.872;9.226;2024-03-07T05:49:12;3.40;99.20
360;DHT22;168;48.872;9.226;2024-03-07T05:51:40;3.40;99.30
360;DHT22;168;48.872;9.226;2024-03-07T05:54:11;3.40;99.40
360;DHT22;168;48.872;9.226;2024-03-07T05:56:39;3.40;99.20
360;DHT22;168;48.872;9.226;2024-03-07T05:59:07;3.50;99.40
360;DHT22;168;48.872;9.226;2024-03-07T06:01:35;3.50;99.20
360;DHT22;168;48.872;9.226;2024-03-07T06:04:06;3.40;99.20
360;DHT22;168;48.872;9.226;2024-03-07T06:06:35;3.40;99.30
360;DHT22;168;48.872;9.226;2024-03-07T06:09:04;3.40;99.30
360;DHT22;168;48.872;9.226;2024-03-07T06:11:33;3.40;99.30
360;DHT22;168;48.872;9.226;2024-03-07T06:14:01;3.30;99.20
360;DHT22;168;48.872;9.226;2024-03-07T06:16:30;3.40;99.30
360;DHT22;168;48.872;9.226;2024-03-07T06:18:59;3.40;99.30
360;DHT22;168;48.872;9.226;2024-03-07T06:21:31;3.50;99.30
360;DHT22;168;48.872;9.226;2024-03-07T06:23:59;3.50;99.20
360;DHT22;168;48.872;9.226;2024-03-07T06:26:27;3.50;99.30
360;DHT22;168;48.872;9.226;2024-03-07T06:29:03;3.60;99.20
360;DHT22;168;48.872;9.226;2024-03-07T06:31:32;3.60;99.10
360;DHT22;168;48.872;9.226;2024-03-07T06:33:59;3.70;98.80
360;DHT22;168;48.872;9.226;2024-03-07T06:36:28;3.70;99.00
360;DHT22;168;48.872;9.226;2024-03-07T06:38:55;3.70;98.90
360;DHT22;168;48.872;9.226;2024-03-07T06:41:23;3.70;98.50
360;DHT22;168;48.872;9.226;2024-03-07T06:43:51;3.70;98.80
360;DHT22;168;48.872;9.226;2024-03-07T06:46:19;3.70;98.90
360;DHT22;168;48.872;9.226;2024-03-07T06:48:47;3.80;98.70
360;DHT22;168;48.872;9.226;2024-03-07T06:51:14;4.00;98.50
360;DHT22;168;48.872;9.226;2024-03-07T06:53:45;4.00;98.20
360;DHT22;168;48.872;9.226;2024-03-07T06:56:12;4.00;98.40
360;DHT22;168;48.872;9.226;2024-03-07T06:58:40;4.00;98.60
360;DHT22;168;48.872;9.226;2024-03-07T07:01:08;4.10;98.20
360;DHT22;168;48.872;9.226;2024-03-07T07:03:36;4.10;98.40
360;DHT22;168;48.872;9.226;2024-03-07T07:06:04;4.10;98.50
360;DHT22;168;48.872;9.226;2024-03-07T07:08:32;4.10;98.50
360;DHT22;168;48.872;9.226;2024-03-07T07:11:01;4.20;98.50
360;DHT22;168;48.872;9.226;2024-03-07T07:13:30;4.30;98.00
360;DHT22;168;48.872;9.226;2024-03-07T07:15:57;4.30;98.10
360;DHT22;168;48.872;9.226;2024-03-07T07:18:25;4.30;98.10
360;DHT22;168;48.872;9.226;2024-03-07T07:20:52;4.30;98.40
360;DHT22;168;48.872;9.226;2024-03-07T07:23:19;4.30;98.40
360;DHT22;168;48.872;9.226;2024-03-07T07:25:47;4.30;98.40
360;DHT22;168;48.872;9.226;2024-03-07T07:28:16;4.50;98.20
360;DHT22;168;48.872;9.226;2024-03-07T07:30:43;4.50;97.70
360;DHT22;168;48.872;9.226;2024-03-07T07:33:10;4.60;97.70
360;DHT22;168;48.872;9.226;2024-03-07T07:35:37;4.70;97.50
360;DHT22;168;48.872;9.226;2024-03-07T07:38:05;4.70;96.90
360;DHT22;168;48.872;9.226;2024-03-07T07:40:33;4.70;97.40
360;DHT22;168;48.872;9.226;2024-03-07T07:43:01;4.70;97.90
360;DHT22;168;48.872;9.226;2024-03-07T07:45:31;4.80;98.10
360;DHT22;168;48.872;9.226;2024-03-07T07:48:03;4.90;97.90
360;DHT22;168;48.872;9.226;2024-03-07T07:50:30;5.10;96.40
360;DHT22;168;48.872;9.226;2024-03-07T07:53:00;5.20;96.50
360;DHT22;168;48.872;9.226;2024-03-07T07:55:33;5.20;95.50
360;DHT22;168;48.872;9.226;2024-03-07T07:58:00;5.30;95.50
360;DHT22;168;48.872;9.226;2024-03-07T08:00:31;5.30;95.40
360;DHT22;168;48.872;9.226;2024-03-07T08:03:00;5.30;94.90
360;DHT22;168;48.872;9.226;2024-03-07T08:05:28;5.30;95.60
360;DHT22;168;48.872;9.226;2024-03-07T08:07:58;5.30;96.20
360;DHT22;168;48.872;9.226;2024-03-07T08:10:27;5.40;95.90
360;DHT22;168;48.872;9.226;2024-03-07T08:12:55;5.50;95.70
360;DHT22;168;48.872;9.226;2024-03-07T08:15:23;5.50;95.60
360;DHT22;168;48.872;9.226;2024-03-07T08:17:52;5.60;95.30
360;DHT22;168;48.872;9.226;2024-03-07T08:20:22;5.70;95.80
360;DHT22;168;48.872;9.226;2024-03-07T08:22:52;5.80;94.60
360;DHT22;168;48.872;9.226;2024-03-07T08:25:23;5.90;94.70
360;DHT22;168;48.872;9.226;2024-03-07T08:27:52;6.00;93.80
360;DHT22;168;48.872;9.226;2024-03-07T08:30:20;6.00;93.50
360;DHT22;168;48.872;9.226;2024-03-07T08:32:50;6.10;93.10
360;DHT22;168;48.872;9.226;2024-03-07T08:35:19;6.10;93.00
360;DHT22;168;48.872;9.226;2024-03-07T08:37:47;6.20;93.60
360;DHT22;168;48.872;9.226;2024-03-07T08:40:15;6.40;93.20
360;DHT22;168;48.872;9.226;2024-03-07T08:42:49;6.40;92.70
360;DHT22;168;48.872;9.226;2024-03-07T08:45:18;6.40;92.60
360;DHT22;168;48.872;9.226;2024-03-07T08:47:46;6.60;93.00
360;DHT22;168;48.872;9.226;2024-03-07T08:50:16;6.70;92.20
360;DHT22;168;48.872;9.226;2024-03-07T08:52:44;6.80;92.30
360;DHT22;168;48.872;9.226;2024-03-07T08:55:13;7.00;92.10
360;DHT22;168;48.872;9.226;2024-03-07T08:57:43;7.30;91.30
360;DHT22;168;48.872;9.226;2024-03-07T09:00:13;7.40;90.80
360;DHT22;168;48.872;9.226;2024-03-07T09:02:48;7.60;90.20
360;DHT22;168;48.872;9.226;2024-03-07T09:05:20;7.80;89.80
360;DHT22;168;48.872;9.226;2024-03-07T09:07:48;8.00;89.00
360;DHT22;168;48.872;9.226;2024-03-07T09:10:16;8.20;87.80
360;DHT22;168;48.872;9.226;2024-03-07T09:12:45;8.30;88.20
360;DHT22;168;48.872;9.226;2024-03-07T09:15:15;8.50;88.20
360;DHT22;168;48.872;9.226;2024-03-07T09:17:43;8.60;87.80
360;DHT22;168;48.872;9.226;2024-03-07T09:20:11;8.80;87.30
360;DHT22;168;48.872;9.226;2024-03-07T09:22:43;9.10;85.90
360;DHT22;168;48.872;9.226;2024-03-07T09:25:11;9.20;84.10
360;DHT22;168;48.872;9.226;2024-03-07T09:27:39;9.30;85.00
360;DHT22;168;48.872;9.226;2024-03-07T09:30:07;9.40;83.50
360;DHT22;168;48.872;9.226;2024-03-07T09:32:39;9.50;83.50
360;DHT22;168;48.872;9.226;2024-03-07T09:35:07;9.50;82.80
360;DHT22;168;48.872;9.226;2024-03-07T09:37:39;9.60;83.70
360;DHT22;168;48.872;9.226;2024-03-07T09:40:10;9.70;82.90
360;DHT22;168;48.872;9.226;2024-03-07T09:42:42;9.80;83.10
360;DHT22;168;48.872;9.226;2024-03-07T09:45:14;10.00;81.50
360;DHT22;168;48.872;9.226;2024-03-07T09:47:45;10.00;81.20
360;DHT22;168;48.872;9.226;2024-03-07T09:50:15;10.00;80.90
360;DHT22;168;48.872;9.226;2024-03-07T09:52:46;9.90;81.90
360;DHT22;168;48.872;9.226;2024-03-07T09:55:17;9.90;82.60
360;DHT22;168;48.872;9.226;2024-03-07T09:57:46;10.00;82.20
360;DHT22;168;48.872;9.226;2024-03-07T10:00:17;10.00;82.10
360;DHT22;168;48.872;9.226;2024-03-07T10:02:53;9.90;82.80
360;DHT22;168;48.872;9.226;2024-03-07T10:05:22;9.90;83.00
360;DHT22;168;48.872;9.226;2024-03-07T10:07:51;9.80;82.80
360;DHT22;168;48.872;9.226;2024-03-07T10:10:20;9.80;81.40
360;DHT22;168;48.872;9.226;2024-03-07T10:12:48;9.70;81.60
360;DHT22;168;48.872;9.226;2024-03-07T10:15:16;9.70;82.90
360;DHT22;168;48.872;9.226;2024-03-07T10:17:45;9.60;83.90
360;DHT22;168;48.872;9.226;2024-03-07T10:20:13;9.70;83.20
360;DHT22;168;48.872;9.226;2024-03-07T10:22:41;9.70;82.90
360;DHT22;168;48.872;9.226;2024-03-07T10:25:08;9.70;83.20
360;DHT22;168;48.872;9.226;2024-03-07T10:27:38;9.60;84.60
360;DHT22;168;48.872;9.226;2024-03-07T10:30:06;9.60;84.90
360;DHT22;168;48.872;9.226;2024-03-07T10:32:34;9.70;85.20
360;DHT22;168;48.872;9.226;2024-03-07T10:35:03;9.70;84.30
360;DHT22;168;48.872;9.226;2024-03-07T10:37:34;9.90;83.30
360;DHT22;168;48.872;9.226;2024-03-07T10:40:02;9.90;82.50
360;DHT22;168;48.872;9.226;2024-03-07T10:42:45;9.80;83.30
360;DHT22;168;48.872;9.226;2024-03-07T10:45:18;9.70;84.10
360;DHT22;168;48.872;9.226;2024-03-07T10:47:53;9.70;84.40
360;DHT22;168;48.872;9.226;2024-03-07T10:50:32;9.80;84.80
360;DHT22;168;48.872;9.226;2024-03-07T10:53:09;9.90;83.60
360;DHT22;168;48.872;9.226;2024-03-07T10:55:43;10.00;82.60
360;DHT22;168;48.872;9.226;2024-03-07T10:58:20;10.10;82.60
360;DHT22;168;48.872;9.226;2024-03-07T11:00:55;10.20;83.60
360;DHT22;168;48.872;9.226;2024-03-07T11:03:23;10.40;81.90
360;DHT22;168;48.872;9.226;2024-03-07T11:05:51;10.60;81.80
360;DHT22;168;48.872;9.226;2024-03-07T11:08:19;10.80;82.00
360;DHT22;168;48.872;9.226;2024-03-07T11:10:47;11.00;81.70
360;DHT22;168;48.872;9.226;2024-03-07T11:13:16;11.10;80.90
360;DHT22;168;48.872;9.226;2024-03-07T11:15:46;11.30;79.10
360;DHT22;168;48.872;9.226;2024-03-07T11:18:15;11.40;79.10
360;DHT22;168;48.872;9.226;2024-03-07T11:20:43;11.60;78.40
360;DHT22;168;48.872;9.226;2024-03-07T11:23:25;11.70;77.50
360;DHT22;168;48.872;9.226;2024-03-07T11:26:04;11.90;77.00
360;DHT22;168;48.872;9.226;2024-03-07T11:28:55;12.00;76.60
360;DHT22;168;48.872;9.226;2024-03-07T11:31:28;12.10;76.80
360;DHT22;168;48.872;9.226;2024-03-07T11:34:32;12.20;74.90
360;DHT22;168;48.872;9.226;2024-03-07T11:37:04;12.30;75.30
360;DHT22;168;48.872;9.226;2024-03-07T11:39:47;12.50;75.40
360;DHT22;168;48.872;9.226;2024-03-07T11:42:29;12.60;74.00
360;DHT22;168;48.872;9.226;2024-03-07T11:45:09;12.80;73.40
360;DHT22;168;48.872;9.226;2024-03-07T11:47:46;12.80;72.40
360;DHT22;168;48.872;9.226;2024-03-07T11:50:18;12.70;73.70
360;DHT22;168;48.872;9.226;2024-03-07T11:53:09;12.70;73.10
360;DHT22;168;48.872;9.226;2024-03-07T11:55:44;12.60;73.70
360;DHT22;168;48.872;9.226;2024-03-07T11:58:15;12.50;73.90
360;DHT22;168;48.872;9.226;2024-03-07T12:00:50;12.50;75.10
360;DHT22;168;48.872;9.226;2024-03-07T12:03:32;12.50;73.10
360;DHT22;168;48.872;9.226;2024-03-07T12:06:10;12.50;74.10
360;DHT22;168;48.872;9.226;2024-03-07T12:08:49;12.50;73.30
360;DHT22;168;48.872;9.226;2024-03-07T12:11:35;12.60;73.50
360;DHT22;168;48.872;9.226;2024-03-07T12:14:20;12.60;74.30
360;DHT22;168;48.872;9.226;2024-03-07T12:16:54;12.60;74.40
360;DHT22;168;48.872;9.226;2024-03-07T12:19:34;12.70;74.40
360;DHT22;168;48.872;9.226;2024-03-07T12:22:07;12.80;73.90
360;DHT22;168;48.872;9.226;2024-03-07T12:24:44;12.80;74.10
360;DHT22;168;48.872;9.226;2024-03-07T12:27:16;12.80;73.90
360;DHT22;168;48.872;9.226;2024-03-07T12:29:44;12.80;73.70
360;DHT22;168;48.872;9.226;2024-03-07T12:32:16;12.80;73.60
360;DHT22;168;48.872;9.226;2024-03-07T12:35:06;12.80;73.30
360;DHT22;168;48.872;9.226;2024-03-07T12:37:43;12.70;73.90
360;DHT22;168;48.872;9.226;2024-03-07T12:40:15;12.80;73.20
360;DHT22;168;48.872;9.226;2024-03-07T12:42:50;12.70;72.90
360;DHT22;168;48.872;9.226;2024-03-07T12:45:24;12.60;72.50
360;DHT22;168;48.872;9.226;2024-03-07T12:48:08;12.50;72.60
360;DHT22;168;48.872;9.226;2024-03-07T12:50:47;12.40;74.00
360;DHT22;168;48.872;9.226;2024-03-07T12:53:29;12.30;73.60
360;DHT22;168;48.872;9.226;2024-03-07T12:56:01;12.40;74.20
360;DHT22;168;48.872;9.226;2024-03-07T12:58:36;12.40;73.30
360;DHT22;168;48.872;9.226;2024-03-07T13:01:09;12.30;73.10
360;DHT22;168;48.872;9.226;2024-03-07T13:03:41;12.30;73.50
360;DHT22;168;48.872;9.226;2024-03-07T13:06:12;12.30;74.60
360;DHT22;168;48.872;9.226;2024-03-07T13:08:46;12.40;73.70
360;DHT22;168;48.872;9.226;2024-03-07T13:11:14;12.40;73.00
360;DHT22;168;48.872;9.226;2024-03-07T13:13:48;12.30;73.90
360;DHT22;168;48.872;9.226;2024-03-07T13:16:23;12.30;73.60
360;DHT22;168;48.872;9.226;2024-03-07T13:19:04;12.30;73.70
360;DHT22;168;48.872;9.226;2024-03-07T13:21:40;12.40;73.70
360;DHT22;168;48.872;9.226;2024-03-07T13:24:12;12.30;74.40
360;DHT22;168;48.872;9.226;2024-03-07T13:26:46;12.20;75.40
360;DHT22;168;48.872;9.226;2024-03-07T13:29:20;12.20;75.50
360;DHT22;168;48.872;9.226;2024-03-07T13:31:54;12.30;75.40
360;DHT22;168;48.872;9.226;2024-03-07T13:34:31;12.30;74.80
360;DHT22;168;48.872;9.226;2024-03-07T13:37:02;12.40;73.50
360;DHT22;168;48.872;9.226;2024-03-07T13:39:45;12.50;72.50
360;DHT22;168;48.872;9.226;2024-03-07T13:42:16;12.40;71.70
360;DHT22;168;48.872;9.226;2024-03-07T13:44:49;12.40;71.80
360;DHT22;168;48.872;9.226;2024-03-07T13:47:21;12.30;72.00
360;DHT22;168;48.872;9.226;2024-03-07T13:49:58;12.20;73.10
360;DHT22;168;48.872;9.226;2024-03-07T13:52:37;12.20;73.00
360;DHT22;168;48.872;9.226;2024-03-07T13:55:12;12.20;72.30
360;DHT22;168;48.872;9.226;2024-03-07T13:57:55;12.20;72.60
360;DHT22;168;48.872;9.226;2024-03-07T14:00:40;12.10;73.40
360;DHT22;168;48.872;9.226;2024-03-07T14:06:33;12.20;73.80
360;DHT22;168;48.872;9.226;2024-03-07T14:12:38;12.20;73.00
360;DHT22;168;48.872;9.226;2024-03-07T14:15:54;12.30;73.30
360;DHT22;168;48.872;9.226;2024-03-07T14:21:52;12.60;72.60
360;DHT22;168;48.872;9.226;2024-03-07T14:30:51;12.70;72.00
360;DHT22;168;48.872;9.226;2024-03-07T14:36:43;12.70;71.50
360;DHT22;168;48.872;9.226;2024-03-07T14:39:21;12.70;72.20
360;DHT22;168;48.872;9.226;2024-03-07T14:41:58;12.80;71.20
360;DHT22;168;48.872;9.226;2024-03-07T14:44:31;12.80;71.60
360;DHT22;168;48.872;9.226;2024-03-07T14:47:08;12.90;70.50
360;DHT22;168;48.872;9.226;2024-03-07T14:49:43;12.80;70.30
360;DHT22;168;48.872;9.226;2024-03-07T14:52:18;12.70;70.40
360;DHT22;168;48.872;9.226;2024-03-07T14:54:49;12.60;70.40
360;DHT22;168;48.872;9.226;2024-03-07T14:57:17;12.50;71.30
360;DHT22;168;48.872;9.226;2024-03-07T14:59:49;12.40;70.30
360;DHT22;168;48.872;9.226;2024-03-07T15:02:23;12.30;70.40
360;DHT22;168;48.872;9.226;2024-03-07T15:04:56;12.30;72.10
360;DHT22;168;48.872;9.226;2024-03-07T15:07:34;12.20;73.40
360;DHT22;168;48.872;9.226;2024-03-07T15:10:25;12.30;72.80
360;DHT22;168;48.872;9.226;2024-03-07T15:13:06;12.20;72.90
360;DHT22;168;48.872;9.226;2024-03-07T15:15:35;12.20;73.30
360;DHT22;168;48.872;9.226;2024-03-07T15:18:18;12.20;73.80
360;DHT22;168;48.872;9.226;2024-03-07T15:20:50;12.10;73.20
360;DHT22;168;48.872;9.226;2024-03-07T15:23:22;12.20;73.10
360;DHT22;168;48.872;9.226;2024-03-07T15:26:05;12.20;72.20
360;DHT22;168;48.872;9.226;2024-03-07T15:28:39;12.20;72.50
360;DHT22;168;48.872;9.226;2024-03-07T15:31:12;12.10;71.70
360;DHT22;168;48.872;9.226;2024-03-07T15:34:04;12.00;72.80
360;DHT22;168;48.872;9.226;2024-03-07T15:36:35;11.90;73.20
360;DHT22;168;48.872;9.226;2024-03-07T15:39:10;11.80;73.50
360;DHT22;168;48.872;9.226;2024-03-07T15:41:57;11.80;72.90
360;DHT22;168;48.872;9.226;2024-03-07T15:44:31;11.70;73.10
360;DHT22;168;48.872;9.226;2024-03-07T15:47:04;11.60;73.90
360;DHT22;168;48.872;9.226;2024-03-07T15:49:38;11.60;74.00
360;DHT22;168;48.872;9.226;2024-03-07T15:52:06;11.50;73.40
360;DHT22;168;48.872;9.226;2024-03-07T15:54:43;11.40;73.40
360;DHT22;168;48.872;9.226;2024-03-07T15:57:18;11.40;73.80
360;DHT22;168;48.872;9.226;2024-03-07T15:59:48;11.30;74.40
360;DHT22;168;48.872;9.226;2024-03-07T16:02:22;11.30;74.50
360;DHT22;168;48.872;9.226;2024-03-07T16:05:14;11.20;74.60
360;DHT22;168;48.872;9.226;2024-03-07T16:07:49;11.20;75.00
360;DHT22;168;48.872;9.226;2024-03-07T16:10:20;11.10;75.50
360;DHT22;168;48.872;9.226;2024-03-07T16:12:59;11.10;75.60
360;DHT22;168;48.872;9.226;2024-03-07T16:15:28;11.00;75.90
360;DHT22;168;48.872;9.226;2024-03-07T16:17:58;10.90;76.40
360;DHT22;168;48.872;9.226;2024-03-07T16:20:26;11.00;77.30
360;DHT22;168;48.872;9.226;2024-03-07T16:22:54;11.00;75.80
360;DHT22;168;48.872;9.226;2024-03-07T16:25:23;11.00;74.90
360;DHT22;168;48.872;9.226;2024-03-07T16:27:53;11.10;74.00
360;DHT22;168;48.872;9.226;2024-03-07T16:30:23;11.00;73.40
360;DHT22;168;48.872;9.226;2024-03-07T16:32:52;11.00;74.00
360;DHT22;168;48.872;9.226;2024-03-07T16:35:24;11.00;73.90
360;DHT22;168;48.872;9.226;2024-03-07T16:38:13;10.90;74.80
360;DHT22;168;48.872;9.226;2024-03-07T16:40:42;10.80;75.30
360;DHT22;168;48.872;9.226;2024-03-07T16:43:09;10.80;75.20
360;DHT22;168;48.872;9.226;2024-03-07T16:45:38;10.70;76.40
360;DHT22;168;48.872;9.226;2024-03-07T16:48:07;10.60;77.00
360;DHT22;168;48.872;9.226;2024-03-07T16:50:35;10.60;76.30
360;DHT22;168;48.872;9.226;2024-03-07T16:53:06;10.60;75.90
360;DHT22;168;48.872;9.226;2024-03-07T16:55:34;10.60;75.90
360;DHT22;168;48.872;9.226;2024-03-07T16:58:04;10.60;75.30
360;DHT22;168;48.872;9.226;2024-03-07T17:00:38;10.50;76.00
360;DHT22;168;48.872;9.226;2024-03-07T17:03:07;10.50;76.50
360;DHT22;168;48.872;9.226;2024-03-07T17:05:36;10.50;76.80
360;DHT22;168;48.872;9.226;2024-03-07T17:08:05;10.40;77.80
360;DHT22;168;48.872;9.226;2024-03-07T17:10:36;10.40;78.30
360;DHT22;168;48.872;9.226;2024-03-07T17:13:05;10.30;78.50
360;DHT22;168;48.872;9.226;2024-03-07T17:15:35;10.30;78.70
360;DHT22;168;48.872;9.226;2024-03-07T17:18:08;10.30;78.40
360;DHT22;168;48.872;9.226;2024-03-07T17:20:48;10.30;78.30
360;DHT22;168;48.872;9.226;2024-03-07T17:23:15;10.20;79.00
360;DHT22;168;48.872;9.226;2024-03-07T17:25:43;10.20;80.10
360;DHT22;168;48.872;9.226;2024-03-07T17:28:10;10.10;80.40